createdAt,value
2018-05-11T00:00:55.983Z,0
2018-05-11T00:02:06.140Z,0
2018-05-11T00:03:16.035Z,0
2018-05-11T00:04:25.929Z,0
2018-05-11T00:05:36.397Z,0
2018-05-11T00:06:46.567Z,0
2018-05-11T00:07:56.459Z,0
2018-05-11T00:09:06.625Z,0
2018-05-11T00:10:16.761Z,0
2018-05-11T00:11:26.897Z,0
2018-05-11T00:12:37.048Z,0
2018-05-11T00:13:47.282Z,0
2018-05-11T00:14:57.528Z,0
2018-05-11T00:16:07.722Z,0
2018-05-11T00:17:18.081Z,0
2018-05-11T00:18:28.286Z,0
2018-05-11T00:19:38.427Z,0
2018-05-11T00:20:48.652Z,0
2018-05-11T00:21:58.568Z,0
2018-05-11T00:23:08.523Z,0
2018-05-11T00:24:18.923Z,0
2018-05-11T00:25:29.117Z,0
2018-05-11T00:26:39.242Z,0
2018-05-11T00:27:49.439Z,0
2018-05-11T00:28:59.570Z,0
2018-05-11T00:30:09.493Z,0
2018-05-11T00:31:19.692Z,0
2018-05-11T00:32:29.994Z,0
2018-05-11T00:33:39.929Z,0
2018-05-11T00:34:49.821Z,0
2018-05-11T00:35:59.948Z,0
2018-05-11T00:37:10.077Z,0
2018-05-11T00:38:20.294Z,0
2018-05-11T00:39:30.420Z,0
2018-05-11T00:40:40.578Z,0
2018-05-11T00:41:50.400Z,0
2018-05-11T00:43:00.298Z,0
2018-05-11T00:44:10.450Z,0
2018-05-11T00:45:20.600Z,0
2018-05-11T00:46:30.737Z,0
2018-05-11T00:47:40.885Z,0
2018-05-11T00:48:51.119Z,0
2018-05-11T00:50:01.247Z,0
2018-05-11T00:51:11.447Z,0
2018-05-11T00:52:21.731Z,0
2018-05-11T00:53:31.618Z,0
2018-05-11T00:54:41.756Z,0
2018-05-11T00:55:51.878Z,0
2018-05-11T00:57:02.055Z,0
2018-05-11T00:58:12.227Z,0
2018-05-11T00:59:22.106Z,0
2018-05-11T01:00:32.292Z,0
2018-05-11T01:01:42.509Z,0
2018-05-11T01:02:52.729Z,0
2018-05-11T01:04:03.839Z,0
2018-05-11T01:05:14.244Z,0
2018-05-11T01:06:24.496Z,0
2018-05-11T01:07:34.706Z,0
2018-05-11T01:08:44.838Z,0
2018-05-11T01:09:54.745Z,0
2018-05-11T01:11:04.661Z,0
2018-05-11T01:12:14.898Z,0
2018-05-11T01:13:25.132Z,0
2018-05-11T01:14:35.274Z,0
2018-05-11T01:15:45.392Z,0
2018-05-11T01:16:55.499Z,0
2018-05-11T01:18:05.692Z,0
2018-05-11T01:19:15.973Z,0
2018-05-11T01:20:26.136Z,0
2018-05-11T01:21:36.007Z,0
2018-05-11T01:22:46.129Z,0
2018-05-11T01:23:56.255Z,0
2018-05-11T01:25:06.440Z,0
2018-05-11T01:26:16.440Z,0
2018-05-11T01:27:26.055Z,0
2018-05-11T01:28:35.634Z,0
2018-05-11T01:29:45.944Z,0
2018-05-11T01:30:55.725Z,0
2018-05-11T01:32:05.890Z,0
2018-05-11T01:33:16.028Z,0
2018-05-11T01:34:26.137Z,0
2018-05-11T01:35:36.279Z,0
2018-05-11T01:36:46.408Z,0
2018-05-11T01:37:56.666Z,0
2018-05-11T01:39:06.843Z,0
2018-05-11T01:40:16.971Z,0
2018-05-11T01:41:27.143Z,0
2018-05-11T01:42:37.341Z,0
2018-05-11T01:43:47.538Z,0
2018-05-11T01:44:57.680Z,0
2018-05-11T01:46:07.628Z,0
2018-05-11T01:47:17.792Z,0
2018-05-11T01:48:27.946Z,0
2018-05-11T01:49:38.085Z,0
2018-05-11T01:50:47.849Z,0
2018-05-11T01:51:58.010Z,0
2018-05-11T01:53:08.165Z,0
2018-05-11T01:54:18.298Z,0
2018-05-11T01:55:28.478Z,0
2018-05-11T01:56:38.619Z,0
2018-05-11T01:57:48.785Z,0
2018-05-11T01:58:58.955Z,0
2018-05-11T02:00:09.149Z,0
2018-05-11T02:01:19.395Z,0
2018-05-11T02:02:29.655Z,0
2018-05-11T02:03:39.863Z,0
2018-05-11T02:04:50.036Z,0
2018-05-11T02:06:00.175Z,0
2018-05-11T02:07:10.327Z,0
2018-05-11T02:08:20.497Z,0
2018-05-11T02:09:30.624Z,0
2018-05-11T02:10:40.779Z,0
2018-05-11T02:11:50.954Z,0
2018-05-11T02:13:01.117Z,0
2018-05-11T02:14:11.001Z,0
2018-05-11T02:15:21.207Z,0
2018-05-11T02:16:31.424Z,0
2018-05-11T02:17:41.197Z,0
2018-05-11T02:18:51.514Z,0
2018-05-11T02:20:01.648Z,0
2018-05-11T02:21:11.782Z,0
2018-05-11T02:22:21.984Z,0
2018-05-11T02:23:32.120Z,0
2018-05-11T02:24:42.439Z,0
2018-05-11T02:25:52.809Z,0
2018-05-11T02:27:02.576Z,0
2018-05-11T02:28:12.835Z,0
2018-05-11T02:29:22.980Z,0
2018-05-11T02:30:33.136Z,0
2018-05-11T02:31:43.042Z,0
2018-05-11T02:32:52.809Z,0
2018-05-11T02:34:02.786Z,0
2018-05-11T02:35:13.007Z,0
2018-05-11T02:36:23.231Z,0
2018-05-11T02:37:33.456Z,0
2018-05-11T02:38:43.597Z,0
2018-05-11T02:39:53.850Z,0
2018-05-11T02:41:03.821Z,0
2018-05-11T02:42:13.974Z,0
2018-05-11T02:43:24.151Z,0
2018-05-11T02:44:34.405Z,0
2018-05-11T02:45:44.635Z,0
2018-05-11T02:46:54.807Z,0
2018-05-11T02:48:05.042Z,0
2018-05-11T02:49:15.264Z,0
2018-05-11T02:50:25.519Z,0
2018-05-11T02:51:35.283Z,0
2018-05-11T02:52:45.428Z,0
2018-05-11T02:53:55.637Z,0
2018-05-11T02:55:05.818Z,0
2018-05-11T02:56:16.065Z,0
2018-05-11T02:57:26.208Z,0
2018-05-11T02:58:36.367Z,0
2018-05-11T02:59:46.504Z,0
2018-05-11T03:00:56.657Z,0
2018-05-11T03:02:06.808Z,0
2018-05-11T03:03:16.932Z,0
2018-05-11T03:04:27.083Z,0
2018-05-11T03:05:37.287Z,0
2018-05-11T03:06:47.552Z,0
2018-05-11T03:07:57.755Z,0
2018-05-11T03:09:07.960Z,0
2018-05-11T03:10:18.133Z,0
2018-05-11T03:11:28.305Z,0
2018-05-11T03:12:38.129Z,0
2018-05-11T03:13:48.042Z,0
2018-05-11T03:14:58.183Z,0
2018-05-11T03:16:08.452Z,0
2018-05-11T03:17:18.059Z,0
2018-05-11T03:18:28.745Z,0
2018-05-11T03:19:38.946Z,0
2018-05-11T03:20:49.080Z,0
2018-05-11T03:21:59.211Z,0
2018-05-11T03:23:08.954Z,0
2018-05-11T03:24:19.092Z,0
2018-05-11T03:25:29.257Z,0
2018-05-11T03:26:39.389Z,0
2018-05-11T03:27:49.665Z,0
2018-05-11T03:28:59.819Z,0
2018-05-11T03:30:09.991Z,0
2018-05-11T03:31:20.333Z,0
2018-05-11T03:32:29.632Z,5
2018-05-11T03:33:39.794Z,5
2018-05-11T03:34:49.939Z,5
2018-05-11T03:36:00.144Z,5
2018-05-11T03:37:10.435Z,5
2018-05-11T03:38:20.709Z,5
2018-05-11T03:39:30.897Z,5
2018-05-11T03:40:40.650Z,5
2018-05-11T03:41:50.792Z,10
2018-05-11T03:43:00.674Z,10
2018-05-11T03:44:10.847Z,10
2018-05-11T03:45:20.719Z,10
2018-05-11T03:46:30.846Z,10
2018-05-11T03:47:40.981Z,10
2018-05-11T03:48:51.225Z,10
2018-05-11T03:50:01.398Z,10
2018-05-11T03:51:11.532Z,10
2018-05-11T03:52:21.742Z,10
2018-05-11T03:53:32.028Z,15
2018-05-11T03:54:42.190Z,15
2018-05-11T03:55:52.117Z,15
2018-05-11T03:57:01.904Z,15
2018-05-11T03:58:12.062Z,15
2018-05-11T03:59:22.190Z,15
2018-05-11T04:00:32.367Z,20
2018-05-11T04:01:42.496Z,20
2018-05-11T04:02:52.641Z,20
2018-05-11T04:04:02.859Z,20
2018-05-11T04:05:13.043Z,20
2018-05-11T04:06:23.195Z,20
2018-05-11T04:07:33.333Z,20
2018-05-11T04:08:43.373Z,20
2018-05-11T04:09:53.704Z,20
2018-05-11T04:11:03.962Z,25
2018-05-11T04:12:14.142Z,25
2018-05-11T04:13:24.549Z,25
2018-05-11T04:14:34.693Z,25
2018-05-11T04:15:44.612Z,25
2018-05-11T04:16:54.763Z,25
2018-05-11T04:18:04.540Z,25
2018-05-11T04:19:14.674Z,25
2018-05-11T04:20:24.827Z,25
2018-05-11T04:21:34.961Z,30
2018-05-11T04:22:45.215Z,30
2018-05-11T04:23:55.409Z,30
2018-05-11T04:25:05.612Z,30
2018-05-11T04:26:15.817Z,35
2018-05-11T04:27:25.715Z,35
2018-05-11T04:28:35.827Z,40
2018-05-11T04:29:46.019Z,40
2018-05-11T04:30:56.159Z,45
2018-05-11T04:32:06.327Z,45
2018-05-11T04:33:16.509Z,50
2018-05-11T04:34:26.635Z,50
2018-05-11T04:35:36.788Z,50
2018-05-11T04:36:46.909Z,50
2018-05-11T04:37:57.092Z,55
2018-05-11T04:39:07.319Z,60
2018-05-11T04:40:17.540Z,60
2018-05-11T04:41:27.426Z,60
2018-05-11T04:42:37.302Z,60
2018-05-11T04:43:47.427Z,65
2018-05-11T04:44:57.546Z,65
2018-05-11T04:46:07.697Z,70
2018-05-11T04:47:17.940Z,70
2018-05-11T04:48:27.807Z,75
2018-05-11T04:49:37.954Z,75
2018-05-11T04:50:47.832Z,75
2018-05-11T04:51:57.966Z,80
2018-05-11T04:53:08.116Z,80
2018-05-11T04:54:18.269Z,80
2018-05-11T04:55:28.511Z,85
2018-05-11T04:56:38.733Z,85
2018-05-11T04:57:48.936Z,85
2018-05-11T04:58:59.146Z,85
2018-05-11T05:00:09.360Z,85
2018-05-11T05:01:19.571Z,85
2018-05-11T05:02:29.747Z,85
2018-05-11T05:03:39.992Z,90
2018-05-11T05:04:50.157Z,90
2018-05-11T05:06:00.304Z,90
2018-05-11T05:07:10.465Z,90
2018-05-11T05:08:20.644Z,90
2018-05-11T05:09:30.778Z,95
2018-05-11T05:10:40.930Z,100
2018-05-11T05:11:51.134Z,100
2018-05-11T05:13:01.371Z,105
2018-05-11T05:14:11.510Z,105
2018-05-11T05:15:21.380Z,110
2018-05-11T05:16:32.247Z,110
2018-05-11T05:17:42.377Z,115
2018-05-11T05:18:52.268Z,115
2018-05-11T05:20:02.427Z,115
2018-05-11T05:21:12.561Z,120
2018-05-11T05:22:22.690Z,120
2018-05-11T05:23:32.963Z,125
2018-05-11T05:24:43.139Z,125
2018-05-11T05:25:53.284Z,130
2018-05-11T05:27:03.524Z,135
2018-05-11T05:28:13.688Z,135
2018-05-11T05:29:23.895Z,135
2018-05-11T05:30:34.084Z,145
2018-05-11T05:31:44.352Z,140
2018-05-11T05:32:53.974Z,145
2018-05-11T05:34:04.164Z,145
2018-05-11T05:35:14.298Z,155
2018-05-11T05:36:24.430Z,155
2018-05-11T05:37:34.579Z,155
2018-05-11T05:38:44.724Z,160
2018-05-11T05:39:55.056Z,160
2018-05-11T05:41:05.231Z,160
2018-05-11T05:42:15.435Z,165
2018-05-11T05:43:25.619Z,165
2018-05-11T05:44:35.790Z,165
2018-05-11T05:45:46.014Z,170
2018-05-11T05:46:55.950Z,175
2018-05-11T05:48:06.093Z,175
2018-05-11T05:49:16.234Z,180
2018-05-11T05:50:26.440Z,180
2018-05-11T05:51:36.630Z,185
2018-05-11T05:52:46.401Z,185
2018-05-11T05:53:56.639Z,185
2018-05-11T05:55:06.905Z,190
2018-05-11T05:56:17.182Z,190
2018-05-11T05:57:27.422Z,190
2018-05-11T05:58:37.819Z,195
2018-05-11T05:59:47.766Z,195
2018-05-11T06:00:57.936Z,200
2018-05-11T06:02:07.715Z,195
2018-05-11T06:03:17.902Z,195
2018-05-11T06:04:28.132Z,190
2018-05-11T06:05:38.287Z,190
2018-05-11T06:06:48.521Z,195
2018-05-11T06:07:58.709Z,200
2018-05-11T06:09:08.848Z,200
2018-05-11T06:10:19.021Z,200
2018-05-11T06:11:29.167Z,205
2018-05-11T06:12:39.038Z,205
2018-05-11T06:13:49.188Z,200
2018-05-11T06:14:59.321Z,200
2018-05-11T06:16:09.500Z,195
2018-05-11T06:17:19.660Z,185
2018-05-11T06:18:30.790Z,185
2018-05-11T06:19:40.938Z,180
2018-05-11T06:20:51.127Z,180
2018-05-11T06:22:01.643Z,180
2018-05-11T06:23:11.784Z,190
2018-05-11T06:24:22.022Z,200
2018-05-11T06:25:32.159Z,210
2018-05-11T06:26:42.301Z,240
2018-05-11T06:27:52.459Z,250
2018-05-11T06:29:02.964Z,275
2018-05-11T06:30:13.098Z,285
2018-05-11T06:31:23.020Z,300
2018-05-11T06:32:33.157Z,300
2018-05-11T06:33:43.296Z,275
2018-05-11T06:34:53.567Z,245
2018-05-11T06:36:03.875Z,220
2018-05-11T06:37:14.037Z,200
2018-05-11T06:38:24.273Z,185
2018-05-11T06:39:34.425Z,175
2018-05-11T06:40:44.817Z,170
2018-05-11T06:41:54.986Z,175
2018-05-11T06:43:05.247Z,185
2018-05-11T06:44:15.385Z,190
2018-05-11T06:45:25.382Z,205
2018-05-11T06:46:35.688Z,205
2018-05-11T06:47:45.622Z,210
2018-05-11T06:48:55.780Z,210
2018-05-11T06:50:05.662Z,210
2018-05-11T06:51:15.782Z,215
2018-05-11T06:52:25.953Z,215
2018-05-11T06:53:36.116Z,215
2018-05-11T06:54:46.321Z,210
2018-05-11T06:55:56.529Z,210
2018-05-11T06:57:06.778Z,210
2018-05-11T06:58:16.978Z,205
2018-05-11T06:59:27.219Z,205
2018-05-11T07:00:37.091Z,205
2018-05-11T07:01:47.144Z,205
2018-05-11T07:02:57.351Z,205
2018-05-11T07:04:07.595Z,205
2018-05-11T07:05:17.794Z,205
2018-05-11T07:06:27.988Z,205
2018-05-11T07:07:38.321Z,210
2018-05-11T07:08:48.200Z,210
2018-05-11T07:09:58.173Z,210
2018-05-11T07:11:08.060Z,210
2018-05-11T07:12:18.204Z,210
2018-05-11T07:13:28.350Z,210
2018-05-11T07:14:38.569Z,215
2018-05-11T07:15:48.740Z,215
2018-05-11T07:16:58.889Z,220
2018-05-11T07:18:09.047Z,235
2018-05-11T07:19:19.261Z,225
2018-05-11T07:20:29.613Z,225
2018-05-11T07:21:39.793Z,225
2018-05-11T07:22:49.974Z,230
2018-05-11T07:24:00.207Z,230
2018-05-11T07:25:10.035Z,235
2018-05-11T07:26:19.916Z,245
2018-05-11T07:27:30.078Z,240
2018-05-11T07:28:40.026Z,240
2018-05-11T07:29:50.203Z,250
2018-05-11T07:31:00.334Z,240
2018-05-11T07:32:10.516Z,240
2018-05-11T07:33:20.091Z,240
2018-05-11T07:34:30.375Z,255
2018-05-11T07:35:40.341Z,260
2018-05-11T07:36:50.502Z,245
2018-05-11T07:38:00.641Z,245
2018-05-11T07:39:10.813Z,255
2018-05-11T07:40:21.130Z,260
2018-05-11T07:41:31.324Z,230
2018-05-11T07:42:41.548Z,265
2018-05-11T07:43:51.164Z,265
2018-05-11T07:45:01.414Z,260
2018-05-11T07:46:11.655Z,265
2018-05-11T07:47:21.540Z,265
2018-05-11T07:48:31.517Z,270
2018-05-11T07:49:41.881Z,270
2018-05-11T07:50:52.151Z,275
2018-05-11T07:52:02.337Z,285
2018-05-11T07:53:12.593Z,285
2018-05-11T07:54:22.581Z,290
2018-05-11T07:55:32.520Z,290
2018-05-11T07:56:42.723Z,290
2018-05-11T07:57:52.884Z,295
2018-05-11T07:59:02.830Z,295
2018-05-11T08:00:12.990Z,295
2018-05-11T08:01:23.153Z,295
2018-05-11T08:02:33.372Z,305
2018-05-11T08:03:43.527Z,305
2018-05-11T08:04:53.787Z,305
2018-05-11T08:06:04.032Z,305
2018-05-11T08:07:14.211Z,305
2018-05-11T08:08:23.814Z,305
2018-05-11T08:09:34.079Z,310
2018-05-11T08:10:44.281Z,310
2018-05-11T08:11:54.185Z,315
2018-05-11T08:13:04.360Z,320
2018-05-11T08:14:15.028Z,340
2018-05-11T08:15:25.320Z,350
2018-05-11T08:16:35.236Z,375
2018-05-11T08:17:45.406Z,340
2018-05-11T08:18:55.601Z,350
2018-05-11T08:20:05.257Z,350
2018-05-11T08:21:15.344Z,350
2018-05-11T08:22:25.611Z,370
2018-05-11T08:23:35.858Z,395
2018-05-11T08:24:45.747Z,445
2018-05-11T08:25:55.891Z,480
2018-05-11T08:27:05.990Z,485
2018-05-11T08:28:15.838Z,490
2018-05-11T08:29:25.679Z,495
2018-05-11T08:30:35.813Z,625
2018-05-11T08:31:46.785Z,1135
2018-05-11T08:32:56.695Z,1585
2018-05-11T08:34:06.960Z,480
2018-05-11T08:35:16.967Z,1545
2018-05-11T08:36:27.175Z,1830
2018-05-11T08:37:37.390Z,1885
2018-05-11T08:38:47.009Z,1855
2018-05-11T08:39:56.977Z,1805
2018-05-11T08:41:07.125Z,1860
2018-05-11T08:42:17.315Z,1875
2018-05-11T08:43:27.686Z,1880
2018-05-11T08:44:37.855Z,1935
2018-05-11T08:45:47.741Z,2035
2018-05-11T08:46:57.984Z,2080
2018-05-11T08:48:07.763Z,2210
2018-05-11T08:49:17.925Z,2590
2018-05-11T08:50:28.073Z,2910
2018-05-11T08:51:38.296Z,2910
2018-05-11T08:52:48.179Z,2940
2018-05-11T08:53:58.333Z,2960
2018-05-11T08:55:08.559Z,2945
2018-05-11T08:56:18.734Z,2860
2018-05-11T08:57:29.025Z,2730
2018-05-11T08:58:39.299Z,2725
2018-05-11T08:59:49.514Z,2640
2018-05-11T09:00:59.721Z,2615
2018-05-11T09:02:09.989Z,2510
2018-05-11T09:03:20.162Z,2375
2018-05-11T09:04:30.367Z,2335
2018-05-11T09:05:40.587Z,2360
2018-05-11T09:06:50.814Z,2445
2018-05-11T09:08:00.981Z,2495
2018-05-11T09:09:11.183Z,2640
2018-05-11T09:10:22.225Z,2550
2018-05-11T09:11:32.428Z,1935
2018-05-11T09:12:42.749Z,1320
2018-05-11T09:13:52.968Z,560
2018-05-11T09:15:03.186Z,2380
2018-05-11T09:16:13.409Z,2380
2018-05-11T09:17:23.720Z,1095
2018-05-11T09:18:33.954Z,2355
2018-05-11T09:19:43.899Z,2425
2018-05-11T09:20:54.398Z,2325
2018-05-11T09:22:04.886Z,2310
2018-05-11T09:23:14.912Z,2165
2018-05-11T09:24:25.149Z,1305
2018-05-11T09:25:35.394Z,2480
2018-05-11T09:26:45.598Z,2605
2018-05-11T09:27:55.629Z,2690
2018-05-11T09:29:05.945Z,2685
2018-05-11T09:30:15.855Z,2665
2018-05-11T09:31:25.812Z,2650
2018-05-11T09:32:36.094Z,2650
2018-05-11T09:33:46.342Z,2620
2018-05-11T09:34:56.511Z,2425
2018-05-11T09:36:08.142Z,2705
2018-05-11T09:37:18.400Z,2830
2018-05-11T09:38:28.682Z,630
2018-05-11T09:39:39.689Z,2955
2018-05-11T09:40:50.009Z,2905
2018-05-11T09:42:00.307Z,2850
2018-05-11T09:43:10.481Z,2800
2018-05-11T09:44:20.394Z,2705
2018-05-11T09:45:30.558Z,2685
2018-05-11T09:46:41.856Z,2715
2018-05-11T09:47:52.069Z,2805
2018-05-11T09:49:02.941Z,1365
2018-05-11T09:50:13.252Z,585
2018-05-11T09:51:23.421Z,435
2018-05-11T09:52:33.572Z,415
2018-05-11T09:53:43.829Z,485
2018-05-11T09:54:54.184Z,3070
2018-05-11T09:56:04.429Z,3110
2018-05-11T09:57:14.248Z,3030
2018-05-11T09:58:24.474Z,2970
2018-05-11T09:59:34.652Z,2960
2018-05-11T10:00:44.876Z,2935
2018-05-11T10:01:55.411Z,2900
2018-05-11T10:03:05.635Z,2900
2018-05-11T10:04:15.855Z,2890
2018-05-11T10:05:26.110Z,2860
2018-05-11T10:06:36.298Z,2795
2018-05-11T10:07:46.536Z,2795
2018-05-11T10:08:56.799Z,2920
2018-05-11T10:10:06.988Z,3155
2018-05-11T10:11:17.225Z,3260
2018-05-11T10:12:27.519Z,1230
2018-05-11T10:13:37.700Z,1175
2018-05-11T10:14:47.860Z,3180
2018-05-11T10:15:57.773Z,3290
2018-05-11T10:17:08.089Z,3390
2018-05-11T10:18:18.304Z,3345
2018-05-11T10:19:28.481Z,3340
2018-05-11T10:20:38.641Z,3320
2018-05-11T10:21:48.812Z,3265
2018-05-11T10:22:59.111Z,3220
2018-05-11T10:24:09.267Z,3170
2018-05-11T10:25:19.857Z,3125
2018-05-11T10:26:30.161Z,3145
2018-05-11T10:27:40.371Z,3195
2018-05-11T10:28:50.997Z,3240
2018-05-11T10:30:02.022Z,3285
2018-05-11T10:31:12.187Z,3405
2018-05-11T10:32:22.394Z,3385
2018-05-11T10:33:32.579Z,3435
2018-05-11T10:34:42.865Z,3390
2018-05-11T10:35:53.099Z,3310
2018-05-11T10:37:03.279Z,3205
2018-05-11T10:38:13.475Z,3220
2018-05-11T10:39:23.690Z,3235
2018-05-11T10:40:33.839Z,3340
2018-05-11T10:41:44.042Z,1875
2018-05-11T10:42:54.319Z,1120
2018-05-11T10:44:04.522Z,1980
2018-05-11T10:45:14.734Z,3285
2018-05-11T10:46:24.916Z,760
2018-05-11T10:47:35.175Z,1015
2018-05-11T10:48:46.089Z,855
2018-05-11T10:49:56.472Z,835
2018-05-11T10:51:06.794Z,2585
2018-05-11T10:52:16.891Z,3045
2018-05-11T10:53:26.578Z,1145
2018-05-11T10:54:36.837Z,2245
2018-05-11T10:55:47.114Z,935
2018-05-11T10:56:57.329Z,975
2018-05-11T10:58:07.533Z,1390
2018-05-11T10:59:17.884Z,3225
2018-05-11T11:00:28.063Z,2015
2018-05-11T11:01:38.281Z,2480
2018-05-11T11:02:48.516Z,3370
2018-05-11T11:03:58.750Z,3455
2018-05-11T11:05:08.976Z,3400
2018-05-11T11:06:19.147Z,3315
2018-05-11T11:07:29.371Z,3215
2018-05-11T11:08:39.360Z,3240
2018-05-11T11:09:49.544Z,2740
2018-05-11T11:10:59.697Z,835
2018-05-11T11:12:09.904Z,905
2018-05-11T11:13:20.100Z,1020
2018-05-11T11:14:30.354Z,1185
2018-05-11T11:15:40.556Z,890
2018-05-11T11:16:50.794Z,610
2018-05-11T11:18:01.055Z,575
2018-05-11T11:19:11.260Z,560
2018-05-11T11:20:21.405Z,550
2018-05-11T11:21:31.565Z,570
2018-05-11T11:22:41.857Z,590
2018-05-11T11:23:52.021Z,610
2018-05-11T11:25:02.219Z,730
2018-05-11T11:26:12.817Z,1315
2018-05-11T11:27:23.035Z,3405
2018-05-11T11:28:33.346Z,2965
2018-05-11T11:29:43.624Z,485
2018-05-11T11:30:53.886Z,440
2018-05-11T11:32:04.077Z,425
2018-05-11T11:33:14.283Z,430
2018-05-11T11:34:24.387Z,450
2018-05-11T11:35:34.675Z,460
2018-05-11T11:36:44.862Z,480
2018-05-11T11:37:55.246Z,530
2018-05-11T11:39:05.434Z,580
2018-05-11T11:40:15.643Z,610
2018-05-11T11:41:25.859Z,615
2018-05-11T11:42:36.130Z,615
2018-05-11T11:43:46.305Z,640
2018-05-11T11:44:56.583Z,660
2018-05-11T11:46:06.727Z,710
2018-05-11T11:47:16.920Z,775
2018-05-11T11:48:27.080Z,875
2018-05-11T11:49:37.351Z,1145
2018-05-11T11:50:47.519Z,2850
2018-05-11T11:51:57.446Z,975
2018-05-11T11:53:08.622Z,1160
2018-05-11T11:54:18.769Z,1160
2018-05-11T11:55:28.440Z,1620
2018-05-11T11:56:38.734Z,3075
2018-05-11T11:57:48.928Z,3035
2018-05-11T11:58:59.295Z,3110
2018-05-11T12:00:09.505Z,3255
2018-05-11T12:01:20.632Z,860
2018-05-11T12:02:30.526Z,880
2018-05-11T12:03:40.507Z,1470
2018-05-11T12:04:50.858Z,1080
2018-05-11T12:06:01.038Z,2330
2018-05-11T12:07:10.943Z,3100
2018-05-11T12:08:20.851Z,3090
2018-05-11T12:09:31.108Z,3080
2018-05-11T12:10:41.097Z,1615
2018-05-11T12:11:51.287Z,1175
2018-05-11T12:13:01.476Z,2120
2018-05-11T12:14:11.672Z,3225
2018-05-11T12:15:21.875Z,3195
2018-05-11T12:16:32.060Z,3080
2018-05-11T12:17:42.275Z,1055
2018-05-11T12:18:52.129Z,970
2018-05-11T12:20:02.301Z,1155
2018-05-11T12:21:12.484Z,3040
2018-05-11T12:22:22.277Z,3175
2018-05-11T12:23:32.155Z,2395
2018-05-11T12:24:42.091Z,1210
2018-05-11T12:25:52.489Z,700
2018-05-11T12:27:02.744Z,595
2018-05-11T12:28:12.903Z,555
2018-05-11T12:29:23.077Z,510
2018-05-11T12:30:33.243Z,480
2018-05-11T12:31:43.177Z,450
2018-05-11T12:32:53.323Z,430
2018-05-11T12:34:03.525Z,415
2018-05-11T12:35:13.712Z,400
2018-05-11T12:36:23.925Z,385
2018-05-11T12:37:34.066Z,375
2018-05-11T12:38:44.224Z,375
2018-05-11T12:39:54.515Z,370
2018-05-11T12:41:04.928Z,365
2018-05-11T12:42:14.888Z,365
2018-05-11T12:43:25.086Z,355
2018-05-11T12:44:35.409Z,350
2018-05-11T12:45:45.574Z,345
2018-05-11T12:46:55.744Z,340
2018-05-11T12:48:05.914Z,335
2018-05-11T12:49:16.103Z,335
2018-05-11T12:50:27.514Z,340
2018-05-11T12:51:37.460Z,355
2018-05-11T12:52:47.716Z,385
2018-05-11T12:53:57.974Z,400
2018-05-11T12:55:08.190Z,395
2018-05-11T12:56:18.345Z,390
2018-05-11T12:57:28.517Z,395
2018-05-11T12:58:38.694Z,405
2018-05-11T12:59:48.840Z,405
2018-05-11T13:00:59.003Z,385
2018-05-11T13:02:08.910Z,385
2018-05-11T13:03:19.067Z,385
2018-05-11T13:04:29.229Z,380
2018-05-11T13:05:39.145Z,380
2018-05-11T13:06:49.422Z,380
2018-05-11T13:07:59.586Z,385
2018-05-11T13:09:09.790Z,395
2018-05-11T13:10:20.130Z,400
2018-05-11T13:11:30.493Z,405
2018-05-11T13:12:40.678Z,405
2018-05-11T13:13:50.875Z,410
2018-05-11T13:15:01.109Z,425
2018-05-11T13:16:11.054Z,445
2018-05-11T13:17:21.225Z,455
2018-05-11T13:18:32.408Z,445
2018-05-11T13:19:42.603Z,435
2018-05-11T13:20:53.188Z,440
2018-05-11T13:22:03.418Z,445
2018-05-11T13:23:13.648Z,475
2018-05-11T13:24:23.888Z,520
2018-05-11T13:25:34.031Z,550
2018-05-11T13:26:44.233Z,570
2018-05-11T13:27:54.609Z,575
2018-05-11T13:29:04.843Z,570
2018-05-11T13:30:15.100Z,585
2018-05-11T13:31:25.267Z,580
2018-05-11T13:32:35.431Z,595
2018-05-11T13:33:45.415Z,590
2018-05-11T13:34:55.567Z,590
2018-05-11T13:36:05.792Z,560
2018-05-11T13:37:15.690Z,545
2018-05-11T13:38:25.842Z,535
2018-05-11T13:39:36.040Z,545
2018-05-11T13:40:46.220Z,575
2018-05-11T13:41:56.388Z,610
2018-05-11T13:43:06.649Z,660
2018-05-11T13:44:16.669Z,700
2018-05-11T13:45:26.952Z,740
2018-05-11T13:46:37.142Z,795
2018-05-11T13:47:48.056Z,865
2018-05-11T13:48:58.195Z,700
2018-05-11T13:50:08.377Z,650
2018-05-11T13:51:18.579Z,715
2018-05-11T13:52:28.801Z,1140
2018-05-11T13:53:38.999Z,655
2018-05-11T13:54:49.203Z,560
2018-05-11T13:55:59.362Z,520
2018-05-11T13:57:09.625Z,520
2018-05-11T13:58:19.847Z,525
2018-05-11T13:59:30.061Z,525
2018-05-11T14:00:40.311Z,545
2018-05-11T14:01:50.608Z,560
2018-05-11T14:03:00.776Z,600
2018-05-11T14:04:11.015Z,780
2018-05-11T14:05:21.171Z,1310
2018-05-11T14:06:31.379Z,1980
2018-05-11T14:07:41.560Z,2090
2018-05-11T14:08:51.834Z,2165
2018-05-11T14:10:01.802Z,2075
2018-05-11T14:11:12.034Z,1605
2018-05-11T14:12:22.215Z,1125
2018-05-11T14:13:31.870Z,800
2018-05-11T14:14:42.056Z,790
2018-05-11T14:15:52.251Z,725
2018-05-11T14:17:02.501Z,715
2018-05-11T14:18:12.779Z,715
2018-05-11T14:19:22.596Z,735
2018-05-11T14:20:32.793Z,885
2018-05-11T14:21:42.948Z,1035
2018-05-11T14:22:53.080Z,1245
2018-05-11T14:24:03.307Z,925
2018-05-11T14:25:13.495Z,825
2018-05-11T14:26:23.681Z,1075
2018-05-11T14:27:33.917Z,1365
2018-05-11T14:28:43.703Z,1850
2018-05-11T14:29:53.860Z,1780
2018-05-11T14:31:03.692Z,805
2018-05-11T14:32:13.918Z,570
2018-05-11T14:33:24.229Z,640
2018-05-11T14:34:35.238Z,520
2018-05-11T14:35:45.425Z,515
2018-05-11T14:36:55.620Z,505
2018-05-11T14:38:05.838Z,505
2018-05-11T14:39:16.232Z,480
2018-05-11T14:40:26.386Z,450
2018-05-11T14:41:36.578Z,420
2018-05-11T14:42:46.858Z,425
2018-05-11T14:43:57.079Z,510
2018-05-11T14:45:07.323Z,410
2018-05-11T14:46:17.485Z,390
2018-05-11T14:47:27.429Z,365
2018-05-11T14:48:37.619Z,345
2018-05-11T14:49:48.398Z,335
2018-05-11T14:50:58.574Z,330
2018-05-11T14:52:08.743Z,375
2018-05-11T14:53:18.980Z,870
2018-05-11T14:54:28.821Z,755
2018-05-11T14:55:39.012Z,375
2018-05-11T14:56:49.182Z,325
2018-05-11T14:57:59.374Z,320
2018-05-11T14:59:09.301Z,310
2018-05-11T15:00:19.530Z,295
2018-05-11T15:01:29.848Z,280
2018-05-11T15:02:40.123Z,275
2018-05-11T15:03:50.317Z,270
2018-05-11T15:05:00.361Z,270
2018-05-11T15:06:10.277Z,270
2018-05-11T15:07:20.500Z,275
2018-05-11T15:08:30.633Z,275
2018-05-11T15:09:40.806Z,275
2018-05-11T15:10:50.957Z,275
2018-05-11T15:12:00.958Z,280
2018-05-11T15:13:11.189Z,300
2018-05-11T15:14:21.377Z,335
2018-05-11T15:15:31.835Z,550
2018-05-11T15:16:42.001Z,620
2018-05-11T15:17:52.190Z,390
2018-05-11T15:19:02.350Z,305
2018-05-11T15:20:12.257Z,265
2018-05-11T15:21:22.424Z,250
2018-05-11T15:22:32.327Z,245
2018-05-11T15:23:42.221Z,250
2018-05-11T15:24:52.390Z,240
2018-05-11T15:26:02.747Z,235
2018-05-11T15:27:12.917Z,240
2018-05-11T15:28:23.080Z,245
2018-05-11T15:29:32.972Z,265
2018-05-11T15:30:43.126Z,285
2018-05-11T15:31:52.947Z,325
2018-05-11T15:33:03.159Z,335
2018-05-11T15:34:13.342Z,335
2018-05-11T15:35:23.538Z,340
2018-05-11T15:36:33.330Z,370
2018-05-11T15:37:43.483Z,375
2018-05-11T15:38:53.639Z,370
2018-05-11T15:40:03.818Z,370
2018-05-11T15:41:14.004Z,380
2018-05-11T15:42:24.208Z,395
2018-05-11T15:43:34.415Z,410
2018-05-11T15:44:44.648Z,420
2018-05-11T15:45:54.918Z,415
2018-05-11T15:47:05.111Z,405
2018-05-11T15:48:16.254Z,405
2018-05-11T15:49:26.268Z,390
2018-05-11T15:50:36.147Z,390
2018-05-11T15:51:46.301Z,395
2018-05-11T15:52:56.221Z,410
2018-05-11T15:54:06.407Z,410
2018-05-11T15:55:16.334Z,410
2018-05-11T15:56:26.505Z,410
2018-05-11T15:57:36.820Z,400
2018-05-11T15:58:47.097Z,395
2018-05-11T15:59:57.291Z,380
2018-05-11T16:01:07.461Z,370
2018-05-11T16:02:17.611Z,350
2018-05-11T16:03:27.791Z,335
2018-05-11T16:04:37.708Z,335
2018-05-11T16:05:47.940Z,340
2018-05-11T16:06:58.101Z,335
2018-05-11T16:08:08.080Z,320
2018-05-11T16:09:18.374Z,300
2018-05-11T16:10:28.590Z,285
2018-05-11T16:11:39.736Z,270
2018-05-11T16:12:50.510Z,260
2018-05-11T16:14:00.829Z,265
2018-05-11T16:15:11.039Z,255
2018-05-11T16:16:21.213Z,250
2018-05-11T16:17:31.102Z,250